sensor_id;sensor_type;location;lat;lon;timestamp;P1;durP1;ratioP1;P2;durP2;ratioP2
23814;SDS011;12088;53.078;8.720;2023-07-13T00:01:11;45.60;;;43.50;;
23814;SDS011;12088;53.078;8.720;2023-07-13T00:03:37;44.93;;;42.50;;
23814;SDS011;12088;53.078;8.720;2023-07-13T00:06:02;43.93;;;41.73;;
23814;SDS011;12088;53.078;8.720;2023-07-13T00:08:29;47.80;;;45.10;;
23814;SDS011;12088;53.078;8.720;2023-07-13T00:10:57;59.63;;;56.63;;
23814;SDS011;12088;53.078;8.720;2023-07-13T00:13:23;46.03;;;43.90;;
23814;SDS011;12088;53.078;8.720;2023-07-13T00:15:48;45.17;;;42.73;;
23814;SDS011;12088;53.078;8.720;2023-07-13T00:18:14;45.63;;;43.30;;
23814;SDS011;12088;53.078;8.720;2023-07-13T00:20:39;45.50;;;43.40;;
23814;SDS011;12088;53.078;8.720;2023-07-13T00:23:06;43.40;;;41.10;;
23814;SDS011;12088;53.078;8.720;2023-07-13T00:25:32;42.60;;;40.33;;
23814;SDS011;12088;53.078;8.720;2023-07-13T00:27:57;54.17;;;51.67;;
23814;SDS011;12088;53.078;8.720;2023-07-13T00:30:23;46.20;;;44.00;;
23814;SDS011;12088;53.078;8.720;2023-07-13T00:32:49;44.43;;;42.33;;
23814;SDS011;12088;53.078;8.720;2023-07-13T00:35:14;46.10;;;43.80;;
23814;SDS011;12088;53.078;8.720;2023-07-13T00:37:40;45.60;;;43.40;;
23814;SDS011;12088;53.078;8.720;2023-07-13T00:40:06;44.87;;;42.67;;
23814;SDS011;12088;53.078;8.720;2023-07-13T00:42:33;44.43;;;42.37;;
23814;SDS011;12088;53.078;8.720;2023-07-13T00:46:09;50.17;;;47.63;;
23814;SDS011;12088;53.078;8.720;2023-07-13T00:47:54;50.60;;;47.50;;
23814;SDS011;12088;53.078;8.720;2023-07-13T00:50:21;49.07;;;46.67;;
23814;SDS011;12088;53.078;8.720;2023-07-13T00:52:49;47.83;;;45.17;;
23814;SDS011;12088;53.078;8.720;2023-07-13T00:55:18;47.87;;;45.57;;
23814;SDS011;12088;53.078;8.720;2023-07-13T00:57:45;45.50;;;43.20;;
23814;SDS011;12088;53.078;8.720;2023-07-13T01:00:11;49.23;;;46.83;;
23814;SDS011;12088;53.078;8.720;2023-07-13T01:02:41;48.13;;;45.70;;
23814;SDS011;12088;53.078;8.720;2023-07-13T01:05:09;48.03;;;45.80;;
23814;SDS011;12088;53.078;8.720;2023-07-13T01:07:36;48.43;;;45.93;;
23814;SDS011;12088;53.078;8.720;2023-07-13T01:10:02;49.20;;;46.77;;
23814;SDS011;12088;53.078;8.720;2023-07-13T01:12:28;49.70;;;47.27;;
23814;SDS011;12088;53.078;8.720;2023-07-13T01:14:58;51.37;;;48.63;;
23814;SDS011;12088;53.078;8.720;2023-07-13T01:17:25;52.17;;;49.47;;
23814;SDS011;12088;53.078;8.720;2023-07-13T01:19:51;58.07;;;55.00;;
23814;SDS011;12088;53.078;8.720;2023-07-13T01:22:18;54.30;;;51.20;;
23814;SDS011;12088;53.078;8.720;2023-07-13T01:24:47;52.70;;;50.07;;
23814;SDS011;12088;53.078;8.720;2023-07-13T01:27:14;54.40;;;51.90;;
23814;SDS011;12088;53.078;8.720;2023-07-13T01:29:44;55.77;;;53.03;;
23814;SDS011;12088;53.078;8.720;2023-07-13T01:32:12;51.70;;;49.23;;
23814;SDS011;12088;53.078;8.720;2023-07-13T01:34:40;53.73;;;51.17;;
23814;SDS011;12088;53.078;8.720;2023-07-13T01:37:07;57.60;;;54.70;;
23814;SDS011;12088;53.078;8.720;2023-07-13T01:39:33;54.70;;;51.60;;
23814;SDS011;12088;53.078;8.720;2023-07-13T01:41:59;56.53;;;53.43;;
23814;SDS011;12088;53.078;8.720;2023-07-13T01:44:25;52.30;;;49.77;;
23814;SDS011;12088;53.078;8.720;2023-07-13T01:46:50;53.70;;;51.07;;
23814;SDS011;12088;53.078;8.720;2023-07-13T01:49:16;52.83;;;49.93;;
23814;SDS011;12088;53.078;8.720;2023-07-13T01:51:42;54.00;;;51.40;;
23814;SDS011;12088;53.078;8.720;2023-07-13T01:54:07;49.77;;;47.10;;
23814;SDS011;12088;53.078;8.720;2023-07-13T01:56:33;53.73;;;51.13;;
23814;SDS011;12088;53.078;8.720;2023-07-13T01:58:58;51.77;;;48.77;;
23814;SDS011;12088;53.078;8.720;2023-07-13T02:01:24;50.07;;;47.40;;
23814;SDS011;12088;53.078;8.720;2023-07-13T02:03:49;50.23;;;47.70;;
23814;SDS011;12088;53.078;8.720;2023-07-13T02:06:15;53.63;;;51.03;;
23814;SDS011;12088;53.078;8.720;2023-07-13T02:08:40;50.07;;;47.37;;
23814;SDS011;12088;53.078;8.720;2023-07-13T02:11:07;54.43;;;51.93;;
23814;SDS011;12088;53.078;8.720;2023-07-13T02:13:33;48.47;;;46.10;;
23814;SDS011;12088;53.078;8.720;2023-07-13T02:15:58;50.47;;;47.97;;
23814;SDS011;12088;53.078;8.720;2023-07-13T02:18:24;50.50;;;47.97;;
23814;SDS011;12088;53.078;8.720;2023-07-13T02:20:49;51.03;;;47.90;;
23814;SDS011;12088;53.078;8.720;2023-07-13T02:23:15;47.97;;;45.23;;
23814;SDS011;12088;53.078;8.720;2023-07-13T02:25:40;57.53;;;54.73;;
23814;SDS011;12088;53.078;8.720;2023-07-13T02:28:06;48.87;;;46.40;;
23814;SDS011;12088;53.078;8.720;2023-07-13T02:30:31;48.33;;;45.97;;
23814;SDS011;12088;53.078;8.720;2023-07-13T02:32:57;50.47;;;47.57;;
23814;SDS011;12088;53.078;8.720;2023-07-13T02:35:22;51.53;;;48.53;;
23814;SDS011;12088;53.078;8.720;2023-07-13T02:37:48;58.80;;;55.77;;
23814;SDS011;12088;53.078;8.720;2023-07-13T02:40:14;49.37;;;46.80;;
23814;SDS011;12088;53.078;8.720;2023-07-13T02:42:40;56.40;;;53.50;;
23814;SDS011;12088;53.078;8.720;2023-07-13T02:45:06;54.13;;;50.87;;
23814;SDS011;12088;53.078;8.720;2023-07-13T02:47:33;47.97;;;45.67;;
23814;SDS011;12088;53.078;8.720;2023-07-13T02:49:59;50.53;;;48.03;;
23814;SDS011;12088;53.078;8.720;2023-07-13T02:52:26;49.43;;;47.10;;
23814;SDS011;12088;53.078;8.720;2023-07-13T02:54:52;48.37;;;45.40;;
23814;SDS011;12088;53.078;8.720;2023-07-13T02:57:17;47.37;;;44.70;;
23814;SDS011;12088;53.078;8.720;2023-07-13T02:59:42;44.57;;;42.27;;
23814;SDS011;12088;53.078;8.720;2023-07-13T03:02:08;47.40;;;44.77;;
23814;SDS011;12088;53.078;8.720;2023-07-13T03:04:35;59.67;;;56.60;;
23814;SDS011;12088;53.078;8.720;2023-07-13T03:07:01;45.37;;;42.90;;
23814;SDS011;12088;53.078;8.720;2023-07-13T03:09:27;44.90;;;42.37;;
23814;SDS011;12088;53.078;8.720;2023-07-13T03:11:53;50.10;;;46.73;;
23814;SDS011;12088;53.078;8.720;2023-07-13T03:14:20;51.90;;;49.37;;
23814;SDS011;12088;53.078;8.720;2023-07-13T03:16:46;52.03;;;49.33;;
23814;SDS011;12088;53.078;8.720;2023-07-13T03:19:13;53.47;;;50.63;;
23814;SDS011;12088;53.078;8.720;2023-07-13T03:21:38;53.33;;;50.63;;
23814;SDS011;12088;53.078;8.720;2023-07-13T03:24:04;45.70;;;43.33;;
23814;SDS011;12088;53.078;8.720;2023-07-13T03:26:30;44.57;;;42.27;;
23814;SDS011;12088;53.078;8.720;2023-07-13T03:28:55;46.37;;;43.70;;
23814;SDS011;12088;53.078;8.720;2023-07-13T03:31:22;59.73;;;56.73;;
23814;SDS011;12088;53.078;8.720;2023-07-13T03:33:50;48.67;;;46.27;;
23814;SDS011;12088;53.078;8.720;2023-07-13T03:36:17;53.83;;;51.23;;
23814;SDS011;12088;53.078;8.720;2023-07-13T03:38:46;54.30;;;51.70;;
23814;SDS011;12088;53.078;8.720;2023-07-13T03:41:12;46.90;;;44.50;;
23814;SDS011;12088;53.078;8.720;2023-07-13T03:43:39;44.70;;;42.33;;
23814;SDS011;12088;53.078;8.720;2023-07-13T03:46:04;47.63;;;44.87;;
23814;SDS011;12088;53.078;8.720;2023-07-13T03:48:29;63.83;;;60.60;;
23814;SDS011;12088;53.078;8.720;2023-07-13T03:50:55;45.57;;;42.90;;
23814;SDS011;12088;53.078;8.720;2023-07-13T03:53:20;50.30;;;47.90;;
23814;SDS011;12088;53.078;8.720;2023-07-13T03:55:46;52.17;;;49.07;;
23814;SDS011;12088;53.078;8.720;2023-07-13T03:58:28;55.60;;;52.87;;
23814;SDS011;12088;53.078;8.720;2023-07-13T04:00:56;50.93;;;48.30;;
23814;SDS011;12088;53.078;8.720;2023-07-13T04:03:23;46.70;;;44.60;;
23814;SDS011;12088;53.078;8.720;2023-07-13T04:05:49;46.27;;;43.53;;
23814;SDS011;12088;53.078;8.720;2023-07-13T04:08:14;56.40;;;53.47;;
23814;SDS011;12088;53.078;8.720;2023-07-13T04:10:40;52.17;;;49.50;;
23814;SDS011;12088;53.078;8.720;2023-07-13T04:13:05;44.30;;;42.20;;
23814;SDS011;12088;53.078;8.720;2023-07-13T04:15:31;53.43;;;50.83;;
23814;SDS011;12088;53.078;8.720;2023-07-13T04:17:57;49.92;;;47.03;;
23814;SDS011;12088;53.078;8.720;2023-07-13T04:20:24;46.27;;;44.00;;
23814;SDS011;12088;53.078;8.720;2023-07-13T04:22:50;48.53;;;45.78;;
23814;SDS011;12088;53.078;8.720;2023-07-13T04:25:16;47.83;;;45.70;;
23814;SDS011;12088;53.078;8.720;2023-07-13T04:27:41;56.23;;;53.37;;
23814;SDS011;12088;53.078;8.720;2023-07-13T04:30:07;43.43;;;40.87;;
23814;SDS011;12088;53.078;8.720;2023-07-13T04:32:33;50.23;;;47.47;;
23814;SDS011;12088;53.078;8.720;2023-07-13T04:34:59;49.63;;;47.42;;
23814;SDS011;12088;53.078;8.720;2023-07-13T04:37:25;44.47;;;41.90;;
23814;SDS011;12088;53.078;8.720;2023-07-13T04:39:51;44.50;;;42.40;;
23814;SDS011;12088;53.078;8.720;2023-07-13T04:42:17;41.40;;;39.35;;
23814;SDS011;12088;53.078;8.720;2023-07-13T04:44:49;50.63;;;48.17;;
23814;SDS011;12088;53.078;8.720;2023-07-13T04:47:15;46.30;;;43.90;;
23814;SDS011;12088;53.078;8.720;2023-07-13T04:49:41;52.80;;;50.13;;
23814;SDS011;12088;53.078;8.720;2023-07-13T04:52:07;49.47;;;46.83;;
23814;SDS011;12088;53.078;8.720;2023-07-13T04:54:33;50.17;;;47.45;;
23814;SDS011;12088;53.078;8.720;2023-07-13T04:56:58;46.00;;;43.38;;
23814;SDS011;12088;53.078;8.720;2023-07-13T04:59:24;52.70;;;50.00;;
23814;SDS011;12088;53.078;8.720;2023-07-13T05:01:50;41.08;;;39.05;;
23814;SDS011;12088;53.078;8.720;2023-07-13T05:04:16;43.53;;;40.60;;
23814;SDS011;12088;53.078;8.720;2023-07-13T05:06:41;44.05;;;41.88;;
23814;SDS011;12088;53.078;8.720;2023-07-13T05:09:07;80.38;;;76.43;;
23814;SDS011;12088;53.078;8.720;2023-07-13T05:11:32;55.25;;;52.38;;
23814;SDS011;12088;53.078;8.720;2023-07-13T05:13:58;52.10;;;49.63;;
23814;SDS011;12088;53.078;8.720;2023-07-13T05:16:24;48.63;;;46.20;;
23814;SDS011;12088;53.078;8.720;2023-07-13T05:18:49;50.78;;;48.45;;
23814;SDS011;12088;53.078;8.720;2023-07-13T05:21:15;71.63;;;67.85;;
23814;SDS011;12088;53.078;8.720;2023-07-13T05:23:40;53.28;;;50.60;;
23814;SDS011;12088;53.078;8.720;2023-07-13T05:26:08;58.22;;;55.10;;
23814;SDS011;12088;53.078;8.720;2023-07-13T05:28:34;53.10;;;50.13;;
23814;SDS011;12088;53.078;8.720;2023-07-13T05:30:59;45.88;;;43.05;;
23814;SDS011;12088;53.078;8.720;2023-07-13T05:33:25;55.33;;;52.47;;
23814;SDS011;12088;53.078;8.720;2023-07-13T05:35:51;54.22;;;51.03;;
23814;SDS011;12088;53.078;8.720;2023-07-13T05:38:16;48.42;;;45.90;;
23814;SDS011;12088;53.078;8.720;2023-07-13T05:40:43;49.75;;;46.70;;
23814;SDS011;12088;53.078;8.720;2023-07-13T05:43:09;52.80;;;49.97;;
23814;SDS011;12088;53.078;8.720;2023-07-13T05:45:35;51.80;;;49.17;;
23814;SDS011;12088;53.078;8.720;2023-07-13T05:48:00;55.75;;;52.70;;
23814;SDS011;12088;53.078;8.720;2023-07-13T05:50:26;56.70;;;53.63;;
23814;SDS011;12088;53.078;8.720;2023-07-13T05:52:51;53.20;;;50.53;;
23814;SDS011;12088;53.078;8.720;2023-07-13T05:55:17;50.80;;;48.42;;
23814;SDS011;12088;53.078;8.720;2023-07-13T05:57:43;59.92;;;56.65;;
23814;SDS011;12088;53.078;8.720;2023-07-13T06:00:08;58.53;;;55.85;;
23814;SDS011;12088;53.078;8.720;2023-07-13T06:02:35;54.42;;;51.67;;
23814;SDS011;12088;53.078;8.720;2023-07-13T06:05:00;58.28;;;55.47;;
23814;SDS011;12088;53.078;8.720;2023-07-13T06:07:26;62.45;;;59.25;;
23814;SDS011;12088;53.078;8.720;2023-07-13T06:09:51;55.47;;;52.63;;
23814;SDS011;12088;53.078;8.720;2023-07-13T06:12:17;54.33;;;51.40;;
23814;SDS011;12088;53.078;8.720;2023-07-13T06:14:42;58.78;;;55.60;;
23814;SDS011;12088;53.078;8.720;2023-07-13T06:17:08;542.50;;;290.40;;
23814;SDS011;12088;53.078;8.720;2023-07-13T06:19:33;543.30;;;291.08;;
23814;SDS011;12088;53.078;8.720;2023-07-13T06:21:59;541.85;;;289.60;;
23814;SDS011;12088;53.078;8.720;2023-07-13T06:24:25;1999.90;;;999.90;;
23814;SDS011;12088;53.078;8.720;2023-07-13T06:26:51;1051.07;;;548.47;;
23814;SDS011;12088;53.078;8.720;2023-07-13T06:29:16;1034.10;;;532.55;;
23814;SDS011;12088;53.078;8.720;2023-07-13T06:31:42;1518.43;;;767.50;;
23814;SDS011;12088;53.078;8.720;2023-07-13T06:34:08;1519.57;;;768.67;;
23814;SDS011;12088;53.078;8.720;2023-07-13T06:36:33;1520.90;;;769.95;;
23814;SDS011;12088;53.078;8.720;2023-07-13T06:39:01;1518.07;;;767.15;;
23814;SDS011;12088;53.078;8.720;2023-07-13T06:41:26;1516.75;;;765.90;;
23814;SDS011;12088;53.078;8.720;2023-07-13T06:43:52;1520.93;;;769.92;;
23814;SDS011;12088;53.078;8.720;2023-07-13T06:46:19;75.18;;;71.75;;
23814;SDS011;12088;53.078;8.720;2023-07-13T06:48:46;65.45;;;62.17;;
23814;SDS011;12088;53.078;8.720;2023-07-13T06:51:11;68.97;;;65.68;;
23814;SDS011;12088;53.078;8.720;2023-07-13T06:53:37;87.28;;;83.03;;
23814;SDS011;12088;53.078;8.720;2023-07-13T06:56:02;92.53;;;88.28;;
23814;SDS011;12088;53.078;8.720;2023-07-13T06:58:28;84.57;;;80.85;;
23814;SDS011;12088;53.078;8.720;2023-07-13T07:00:55;1037.65;;;536.00;;
23814;SDS011;12088;53.078;8.720;2023-07-13T07:03:21;1046.15;;;544.03;;
23814;SDS011;12088;53.078;8.720;2023-07-13T07:05:46;78.00;;;74.00;;
23814;SDS011;12088;53.078;8.720;2023-07-13T07:08:12;95.43;;;90.70;;
23814;SDS011;12088;53.078;8.720;2023-07-13T07:10:37;1999.90;;;999.90;;
23814;SDS011;12088;53.078;8.720;2023-07-13T07:13:03;1999.90;;;999.90;;
23814;SDS011;12088;53.078;8.720;2023-07-13T07:15:28;1999.90;;;999.90;;
23814;SDS011;12088;53.078;8.720;2023-07-13T07:17:54;1999.90;;;999.90;;
23814;SDS011;12088;53.078;8.720;2023-07-13T07:20:20;1999.90;;;999.90;;
23814;SDS011;12088;53.078;8.720;2023-07-13T07:22:46;1999.90;;;999.90;;
23814;SDS011;12088;53.078;8.720;2023-07-13T07:25:12;1999.90;;;999.90;;
23814;SDS011;12088;53.078;8.720;2023-07-13T07:27:38;1999.90;;;999.90;;
23814;SDS011;12088;53.078;8.720;2023-07-13T07:30:04;1999.90;;;999.90;;
23814;SDS011;12088;53.078;8.720;2023-07-13T07:32:30;1999.90;;;999.90;;
23814;SDS011;12088;53.078;8.720;2023-07-13T07:34:57;1999.90;;;999.90;;
23814;SDS011;12088;53.078;8.720;2023-07-13T07:37:22;1999.90;;;999.90;;
23814;SDS011;12088;53.078;8.720;2023-07-13T07:39:48;1999.90;;;999.90;;
23814;SDS011;12088;53.078;8.720;2023-07-13T07:42:14;1999.90;;;999.90;;
23814;SDS011;12088;53.078;8.720;2023-07-13T07:44:41;1999.90;;;999.90;;
23814;SDS011;12088;53.078;8.720;2023-07-13T07:47:07;1999.90;;;999.90;;
23814;SDS011;12088;53.078;8.720;2023-07-13T07:49:33;1999.90;;;999.90;;
23814;SDS011;12088;53.078;8.720;2023-07-13T07:52:01;1999.90;;;999.90;;
23814;SDS011;12088;53.078;8.720;2023-07-13T07:54:27;1999.90;;;999.90;;
23814;SDS011;12088;53.078;8.720;2023-07-13T07:56:53;1999.90;;;999.90;;
23814;SDS011;12088;53.078;8.720;2023-07-13T07:59:18;1999.90;;;999.90;;
23814;SDS011;12088;53.078;8.720;2023-07-13T08:01:44;1999.90;;;999.90;;
23814;SDS011;12088;53.078;8.720;2023-07-13T08:04:11;1999.90;;;999.90;;
23814;SDS011;12088;53.078;8.720;2023-07-13T08:06:36;1999.90;;;999.90;;
23814;SDS011;12088;53.078;8.720;2023-07-13T08:09:02;1999.90;;;999.90;;
23814;SDS011;12088;53.078;8.720;2023-07-13T08:11:29;1999.90;;;999.90;;
23814;SDS011;12088;53.078;8.720;2023-07-13T08:13:54;1999.90;;;999.90;;
23814;SDS011;12088;53.078;8.720;2023-07-13T08:16:20;1999.90;;;999.90;;
23814;SDS011;12088;53.078;8.720;2023-07-13T08:18:45;1999.90;;;999.90;;
23814;SDS011;12088;53.078;8.720;2023-07-13T08:21:11;1999.90;;;999.90;;
23814;SDS011;12088;53.078;8.720;2023-07-13T08:23:36;1999.90;;;999.90;;
23814;SDS011;12088;53.078;8.720;2023-07-13T08:26:02;1999.90;;;999.90;;
23814;SDS011;12088;53.078;8.720;2023-07-13T08:28:29;1999.90;;;999.90;;
23814;SDS011;12088;53.078;8.720;2023-07-13T08:30:55;1999.90;;;999.90;;
23814;SDS011;12088;53.078;8.720;2023-07-13T08:33:26;1999.90;;;999.90;;
23814;SDS011;12088;53.078;8.720;2023-07-13T08:35:51;1999.90;;;999.90;;
23814;SDS011;12088;53.078;8.720;2023-07-13T08:38:17;1999.90;;;999.90;;
23814;SDS011;12088;53.078;8.720;2023-07-13T08:40:43;1999.90;;;999.90;;
23814;SDS011;12088;53.078;8.720;2023-07-13T08:43:16;1999.90;;;999.90;;
23814;SDS011;12088;53.078;8.720;2023-07-13T08:45:45;1999.90;;;999.90;;
23814;SDS011;12088;53.078;8.720;2023-07-13T08:48:16;1999.90;;;999.90;;
23814;SDS011;12088;53.078;8.720;2023-07-13T08:51:02;1999.90;;;999.90;;
23814;SDS011;12088;53.078;8.720;2023-07-13T08:53:38;1999.90;;;999.90;;
23814;SDS011;12088;53.078;8.720;2023-07-13T08:56:27;1999.90;;;999.90;;
23814;SDS011;12088;53.078;8.720;2023-07-13T08:58:58;1999.90;;;999.90;;
23814;SDS011;12088;53.078;8.720;2023-07-13T09:01:38;1999.90;;;999.90;;
23814;SDS011;12088;53.078;8.720;2023-07-13T09:04:32;1999.90;;;999.90;;
23814;SDS011;12088;53.078;8.720;2023-07-13T09:09:42;1999.90;;;999.90;;
23814;SDS011;12088;53.078;8.720;2023-07-13T09:12:26;1999.90;;;999.90;;
23814;SDS011;12088;53.078;8.720;2023-07-13T09:15:06;1999.90;;;999.90;;
23814;SDS011;12088;53.078;8.720;2023-07-13T09:17:47;1999.90;;;999.90;;
23814;SDS011;12088;53.078;8.720;2023-07-13T09:20:34;1999.90;;;999.90;;
23814;SDS011;12088;53.078;8.720;2023-07-13T09:23:14;1999.90;;;999.90;;
23814;SDS011;12088;53.078;8.720;2023-07-13T09:25:44;1999.90;;;999.90;;
23814;SDS011;12088;53.078;8.720;2023-07-13T09:28:16;1999.90;;;999.90;;
23814;SDS011;12088;53.078;8.720;2023-07-13T09:33:13;1999.90;;;999.90;;
23814;SDS011;12088;53.078;8.720;2023-07-13T09:35:39;1999.90;;;999.90;;
23814;SDS011;12088;53.078;8.720;2023-07-13T09:38:16;1999.90;;;999.90;;
23814;SDS011;12088;53.078;8.720;2023-07-13T09:43:10;1999.90;;;999.90;;
23814;SDS011;12088;53.078;8.720;2023-07-13T09:45:39;1999.90;;;999.90;;
23814;SDS011;12088;53.078;8.720;2023-07-13T09:48:06;1999.90;;;999.90;;
23814;SDS011;12088;53.078;8.720;2023-07-13T09:50:39;1999.90;;;999.90;;
23814;SDS011;12088;53.078;8.720;2023-07-13T09:53:11;1999.90;;;999.90;;
23814;SDS011;12088;53.078;8.720;2023-07-13T09:55:39;1999.90;;;999.90;;
23814;SDS011;12088;53.078;8.720;2023-07-13T09:58:10;1999.90;;;999.90;;
23814;SDS011;12088;53.078;8.720;2023-07-13T10:00:55;1999.90;;;999.90;;
23814;SDS011;12088;53.078;8.720;2023-07-13T10:03:27;1999.90;;;999.90;;
23814;SDS011;12088;53.078;8.720;2023-07-13T10:05:55;1999.90;;;999.90;;
23814;SDS011;12088;53.078;8.720;2023-07-13T10:08:35;1999.90;;;999.90;;
23814;SDS011;12088;53.078;8.720;2023-07-13T10:11:08;1999.90;;;999.90;;
23814;SDS011;12088;53.078;8.720;2023-07-13T10:13:36;1999.90;;;999.90;;
23814;SDS011;12088;53.078;8.720;2023-07-13T10:16:07;1999.90;;;999.90;;
23814;SDS011;12088;53.078;8.720;2023-07-13T10:18:48;1999.90;;;999.90;;
23814;SDS011;12088;53.078;8.720;2023-07-13T10:21:17;1999.90;;;999.90;;
23814;SDS011;12088;53.078;8.720;2023-07-13T10:23:55;1999.90;;;999.90;;
23814;SDS011;12088;53.078;8.720;2023-07-13T10:26:25;1999.90;;;999.90;;
23814;SDS011;12088;53.078;8.720;2023-07-13T10:28:56;1999.90;;;999.90;;
23814;SDS011;12088;53.078;8.720;2023-07-13T10:31:27;1999.90;;;999.90;;
23814;SDS011;12088;53.078;8.720;2023-07-13T10:33:55;1999.90;;;999.90;;
23814;SDS011;12088;53.078;8.720;2023-07-13T10:36:29;1999.90;;;999.90;;
23814;SDS011;12088;53.078;8.720;2023-07-13T10:39:00;1999.90;;;999.90;;
23814;SDS011;12088;53.078;8.720;2023-07-13T10:41:35;1999.90;;;999.90;;
23814;SDS011;12088;53.078;8.720;2023-07-13T10:44:04;1999.90;;;999.90;;
23814;SDS011;12088;53.078;8.720;2023-07-13T10:46:36;1999.90;;;999.90;;
23814;SDS011;12088;53.078;8.720;2023-07-13T10:49:04;1999.90;;;999.90;;
23814;SDS011;12088;53.078;8.720;2023-07-13T10:51:31;1999.90;;;999.90;;
23814;SDS011;12088;53.078;8.720;2023-07-13T10:54:17;1999.90;;;999.90;;
23814;SDS011;12088;53.078;8.720;2023-07-13T10:56:48;1999.90;;;999.90;;
23814;SDS011;12088;53.078;8.720;2023-07-13T10:59:17;1999.90;;;999.90;;
23814;SDS011;12088;53.078;8.720;2023-07-13T11:01:55;1999.90;;;999.90;;
23814;SDS011;12088;53.078;8.720;2023-07-13T11:04:24;1999.90;;;999.90;;
23814;SDS011;12088;53.078;8.720;2023-07-13T11:06:58;1999.90;;;999.90;;
23814;SDS011;12088;53.078;8.720;2023-07-13T11:09:39;1999.90;;;999.90;;
23814;SDS011;12088;53.078;8.720;2023-07-13T11:12:08;1999.90;;;999.90;;
23814;SDS011;12088;53.078;8.720;2023-07-13T11:20:08;1999.90;;;999.90;;
23814;SDS011;12088;53.078;8.720;2023-07-13T11:23:06;1999.90;;;999.90;;
23814;SDS011;12088;53.078;8.720;2023-07-13T11:25:38;1999.90;;;999.90;;
23814;SDS011;12088;53.078;8.720;2023-07-13T11:30:36;1999.90;;;999.90;;
23814;SDS011;12088;53.078;8.720;2023-07-13T11:33:16;1999.90;;;999.90;;
23814;SDS011;12088;53.078;8.720;2023-07-13T11:38:36;1999.90;;;999.90;;
23814;SDS011;12088;53.078;8.720;2023-07-13T11:43:32;1999.90;;;999.90;;
23814;SDS011;12088;53.078;8.720;2023-07-13T11:45:59;1999.90;;;999.90;;
23814;SDS011;12088;53.078;8.720;2023-07-13T11:48:40;1999.90;;;999.90;;
23814;SDS011;12088;53.078;8.720;2023-07-13T11:51:07;1999.90;;;999.90;;
23814;SDS011;12088;53.078;8.720;2023-07-13T11:53:48;1999.90;;;999.90;;
23814;SDS011;12088;53.078;8.720;2023-07-13T11:56:15;1999.90;;;999.90;;
23814;SDS011;12088;53.078;8.720;2023-07-13T11:58:41;1999.90;;;999.90;;
23814;SDS011;12088;53.078;8.720;2023-07-13T12:01:10;1999.90;;;999.90;;
23814;SDS011;12088;53.078;8.720;2023-07-13T12:03:43;1999.90;;;999.90;;
23814;SDS011;12088;53.078;8.720;2023-07-13T12:09:11;1999.90;;;999.90;;
23814;SDS011;12088;53.078;8.720;2023-07-13T12:11:40;1999.90;;;999.90;;
23814;SDS011;12088;53.078;8.720;2023-07-13T12:14:12;1999.90;;;999.90;;
23814;SDS011;12088;53.078;8.720;2023-07-13T12:16:40;1999.90;;;999.90;;
23814;SDS011;12088;53.078;8.720;2023-07-13T12:19:09;1999.90;;;999.90;;
23814;SDS011;12088;53.078;8.720;2023-07-13T12:21:47;1999.90;;;999.90;;
23814;SDS011;12088;53.078;8.720;2023-07-13T12:24:15;719.97;;;384.30;;
23814;SDS011;12088;53.078;8.720;2023-07-13T12:26:42;72.10;;;68.97;;
23814;SDS011;12088;53.078;8.720;2023-07-13T12:29:15;48.65;;;46.63;;
23814;SDS011;12088;53.078;8.720;2023-07-13T12:31:42;61.35;;;58.78;;
23814;SDS011;12088;53.078;8.720;2023-07-13T12:36:40;47.25;;;45.28;;
23814;SDS011;12088;53.078;8.720;2023-07-13T12:39:17;62.58;;;59.78;;
23814;SDS011;12088;53.078;8.720;2023-07-13T14:52:00;1999.90;;;999.90;;
23814;SDS011;12088;53.078;8.720;2023-07-13T14:54:28;1999.90;;;999.90;;
23814;SDS011;12088;53.078;8.720;2023-07-13T14:57:03;1999.90;;;999.90;;
23814;SDS011;12088;53.078;8.720;2023-07-13T15:33:59;1999.90;;;999.90;;
23814;SDS011;12088;53.078;8.720;2023-07-13T15:36:25;1999.90;;;999.90;;
23814;SDS011;12088;53.078;8.720;2023-07-13T15:38:52;1999.90;;;999.90;;
23814;SDS011;12088;53.078;8.720;2023-07-13T15:41:24;1999.90;;;999.90;;
23814;SDS011;12088;53.078;8.720;2023-07-13T15:43:58;1999.90;;;999.90;;
23814;SDS011;12088;53.078;8.720;2023-07-13T15:46:24;1999.90;;;999.90;;
23814;SDS011;12088;53.078;8.720;2023-07-13T15:48:52;1999.90;;;999.90;;
23814;SDS011;12088;53.078;8.720;2023-07-13T15:53:55;1999.90;;;999.90;;
23814;SDS011;12088;53.078;8.720;2023-07-13T15:56:27;1999.90;;;999.90;;
23814;SDS011;12088;53.078;8.720;2023-07-13T15:58:54;562.08;;;309.33;;
23814;SDS011;12088;53.078;8.720;2023-07-13T16:01:21;76.70;;;73.43;;
23814;SDS011;12088;53.078;8.720;2023-07-13T16:03:48;57.27;;;54.80;;
23814;SDS011;12088;53.078;8.720;2023-07-13T16:06:29;86.60;;;83.00;;
23814;SDS011;12088;53.078;8.720;2023-07-13T16:08:58;50.27;;;48.17;;
23814;SDS011;12088;53.078;8.720;2023-07-13T16:11:27;45.42;;;43.38;;
23814;SDS011;12088;53.078;8.720;2023-07-13T16:13:58;45.05;;;43.03;;
23814;SDS011;12088;53.078;8.720;2023-07-13T16:16:27;48.05;;;45.92;;
23814;SDS011;12088;53.078;8.720;2023-07-13T16:18:54;54.28;;;52.00;;
23814;SDS011;12088;53.078;8.720;2023-07-13T16:36:44;104.13;;;99.80;;
23814;SDS011;12088;53.078;8.720;2023-07-13T16:39:13;71.18;;;67.88;;
23814;SDS011;12088;53.078;8.720;2023-07-13T16:41:40;65.75;;;62.95;;
23814;SDS011;12088;53.078;8.720;2023-07-13T16:44:11;68.22;;;65.30;;
23814;SDS011;12088;53.078;8.720;2023-07-13T16:46:43;51.65;;;49.42;;
23814;SDS011;12088;53.078;8.720;2023-07-13T16:49:30;61.28;;;58.67;;
23814;SDS011;12088;53.078;8.720;2023-07-13T16:51:58;63.30;;;60.40;;
23814;SDS011;12088;53.078;8.720;2023-07-13T16:54:37;59.65;;;57.08;;
23814;SDS011;12088;53.078;8.720;2023-07-13T16:57:06;89.40;;;85.35;;
23814;SDS011;12088;53.078;8.720;2023-07-13T16:59:38;60.88;;;58.15;;
23814;SDS011;12088;53.078;8.720;2023-07-13T17:02:12;49.57;;;47.40;;
23814;SDS011;12088;53.078;8.720;2023-07-13T17:04:59;59.85;;;57.15;;
23814;SDS011;12088;53.078;8.720;2023-07-13T17:07:25;1514.65;;;764.00;;
23814;SDS011;12088;53.078;8.720;2023-07-13T17:09:53;1514.97;;;764.30;;
23814;SDS011;12088;53.078;8.720;2023-07-13T17:12:19;1515.40;;;764.67;;
23814;SDS011;12088;53.078;8.720;2023-07-13T17:14:45;1515.07;;;764.42;;
23814;SDS011;12088;53.078;8.720;2023-07-13T17:17:28;1032.93;;;531.50;;
23814;SDS011;12088;53.078;8.720;2023-07-13T17:19:57;1999.90;;;999.90;;
23814;SDS011;12088;53.078;8.720;2023-07-13T17:22:24;1027.82;;;526.63;;
23814;SDS011;12088;53.078;8.720;2023-07-13T17:24:52;547.45;;;295.48;;
23814;SDS011;12088;53.078;8.720;2023-07-13T17:27:19;1999.90;;;999.90;;
23814;SDS011;12088;53.078;8.720;2023-07-13T17:29:45;542.53;;;290.73;;
23814;SDS011;12088;53.078;8.720;2023-07-13T17:32:15;545.67;;;293.63;;
23814;SDS011;12088;53.078;8.720;2023-07-13T17:34:42;57.17;;;54.60;;
23814;SDS011;12088;53.078;8.720;2023-07-13T17:37:13;52.40;;;50.03;;
23814;SDS011;12088;53.078;8.720;2023-07-13T17:39:44;51.45;;;49.08;;
23814;SDS011;12088;53.078;8.720;2023-07-13T17:42:11;52.17;;;49.72;;